sensor_id;sensor_type;location;lat;lon;timestamp;temperature;humidity
11126;DHT22;5617;54.046;10.676;2023-02-11T00:01:48;5.80;99.90
11126;DHT22;5617;54.046;10.676;2023-02-11T00:03:57;5.80;99.90
11126;DHT22;5617;54.046;10.676;2023-02-11T00:06:06;5.80;99.90
11126;DHT22;5617;54.046;10.676;2023-02-11T00:08:15;5.80;99.90
11126;DHT22;5617;54.046;10.676;2023-02-11T00:10:24;5.80;99.90
11126;DHT22;5617;54.046;10.676;2023-02-11T00:12:32;5.80;99.90
11126;DHT22;5617;54.046;10.676;2023-02-11T00:14:42;5.80;99.90
11126;DHT22;5617;54.046;10.676;2023-02-11T00:16:50;5.80;99.90
11126;DHT22;5617;54.046;10.676;2023-02-11T00:18:59;5.80;99.90
11126;DHT22;5617;54.046;10.676;2023-02-11T00:21:08;5.80;99.90
11126;DHT22;5617;54.046;10.676;2023-02-11T00:23:16;5.80;99.90
11126;DHT22;5617;54.046;10.676;2023-02-11T00:25:24;5.80;99.90
11126;DHT22;5617;54.046;10.676;2023-02-11T00:27:32;5.80;99.90
11126;DHT22;5617;54.046;10.676;2023-02-11T00:29:39;5.80;99.90
11126;DHT22;5617;54.046;10.676;2023-02-11T00:31:47;5.80;99.90
11126;DHT22;5617;54.046;10.676;2023-02-11T00:33:55;5.80;99.90
11126;DHT22;5617;54.046;10.676;2023-02-11T00:36:05;5.80;99.90
11126;DHT22;5617;54.046;10.676;2023-02-11T00:38:13;5.90;99.90
11126;DHT22;5617;54.046;10.676;2023-02-11T00:40:22;5.90;99.90
11126;DHT22;5617;54.046;10.676;2023-02-11T00:42:30;5.90;99.90
11126;DHT22;5617;54.046;10.676;2023-02-11T00:44:38;5.90;99.90
11126;DHT22;5617;54.046;10.676;2023-02-11T00:46:46;5.90;99.90
11126;DHT22;5617;54.046;10.676;2023-02-11T00:48:54;5.90;99.90
11126;DHT22;5617;54.046;10.676;2023-02-11T00:51:05;5.90;99.90
11126;DHT22;5617;54.046;10.676;2023-02-11T00:53:12;6.00;99.90
11126;DHT22;5617;54.046;10.676;2023-02-11T00:55:20;6.00;99.90
11126;DHT22;5617;54.046;10.676;2023-02-11T00:57:27;6.00;99.90
11126;DHT22;5617;54.046;10.676;2023-02-11T00:59:35;6.00;99.90
11126;DHT22;5617;54.046;10.676;2023-02-11T01:01:43;6.00;99.90
11126;DHT22;5617;54.046;10.676;2023-02-11T01:03:50;6.00;99.90
11126;DHT22;5617;54.046;10.676;2023-02-11T01:05:58;6.10;99.90
11126;DHT22;5617;54.046;10.676;2023-02-11T01:08:10;6.10;99.90
11126;DHT22;5617;54.046;10.676;2023-02-11T01:10:17;6.10;99.90
11126;DHT22;5617;54.046;10.676;2023-02-11T01:12:25;6.10;99.90
11126;DHT22;5617;54.046;10.676;2023-02-11T01:14:32;6.10;99.90
11126;DHT22;5617;54.046;10.676;2023-02-11T01:16:40;6.10;99.90
11126;DHT22;5617;54.046;10.676;2023-02-11T01:18:48;6.20;99.90
11126;DHT22;5617;54.046;10.676;2023-02-11T01:20:55;6.20;99.90
11126;DHT22;5617;54.046;10.676;2023-02-11T01:23:03;6.20;99.90
11126;DHT22;5617;54.046;10.676;2023-02-11T01:25:12;6.40;99.90
11126;DHT22;5617;54.046;10.676;2023-02-11T01:27:19;6.30;99.90
11126;DHT22;5617;54.046;10.676;2023-02-11T01:29:27;6.30;99.90
11126;DHT22;5617;54.046;10.676;2023-02-11T01:31:35;6.30;99.90
11126;DHT22;5617;54.046;10.676;2023-02-11T01:33:42;6.40;99.90
11126;DHT22;5617;54.046;10.676;2023-02-11T01:35:50;6.40;99.90
11126;DHT22;5617;54.046;10.676;2023-02-11T01:37:57;6.40;99.90
11126;DHT22;5617;54.046;10.676;2023-02-11T01:40:09;6.40;99.90
11126;DHT22;5617;54.046;10.676;2023-02-11T01:42:20;6.40;99.90
11126;DHT22;5617;54.046;10.676;2023-02-11T01:44:31;6.50;99.90
11126;DHT22;5617;54.046;10.676;2023-02-11T01:46:40;6.50;99.90
11126;DHT22;5617;54.046;10.676;2023-02-11T01:48:51;6.50;99.90
11126;DHT22;5617;54.046;10.676;2023-02-11T01:51:03;6.50;99.90
11126;DHT22;5617;54.046;10.676;2023-02-11T01:53:13;6.50;99.90
11126;DHT22;5617;54.046;10.676;2023-02-11T01:55:38;6.50;99.90
11126;DHT22;5617;54.046;10.676;2023-02-11T01:58:05;6.60;99.90
11126;DHT22;5617;54.046;10.676;2023-02-11T02:00:16;6.60;99.90
11126;DHT22;5617;54.046;10.676;2023-02-11T02:02:31;6.60;99.90
11126;DHT22;5617;54.046;10.676;2023-02-11T02:04:47;6.60;99.90
11126;DHT22;5617;54.046;10.676;2023-02-11T02:07:01;6.60;99.90
11126;DHT22;5617;54.046;10.676;2023-02-11T02:09:13;6.60;99.90
11126;DHT22;5617;54.046;10.676;2023-02-11T02:11:23;6.60;99.90
11126;DHT22;5617;54.046;10.676;2023-02-11T02:13:34;6.70;99.90
11126;DHT22;5617;54.046;10.676;2023-02-11T02:15:46;6.70;99.90
11126;DHT22;5617;54.046;10.676;2023-02-11T02:18:02;6.70;99.90
11126;DHT22;5617;54.046;10.676;2023-02-11T02:20:34;6.80;99.90
11126;DHT22;5617;54.046;10.676;2023-02-11T02:23:20;6.80;99.90
11126;DHT22;5617;54.046;10.676;2023-02-11T02:28:14;6.80;99.90
11126;DHT22;5617;54.046;10.676;2023-02-11T02:30:43;6.80;99.90
11126;DHT22;5617;54.046;10.676;2023-02-11T02:33:20;6.80;99.90
11126;DHT22;5617;54.046;10.676;2023-02-11T02:35:34;6.80;99.90
11126;DHT22;5617;54.046;10.676;2023-02-11T02:37:50;6.90;99.90
11126;DHT22;5617;54.046;10.676;2023-02-11T02:40:05;6.80;99.90
11126;DHT22;5617;54.046;10.676;2023-02-11T02:42:17;6.90;99.90
11126;DHT22;5617;54.046;10.676;2023-02-11T02:44:26;6.90;99.90
11126;DHT22;5617;54.046;10.676;2023-02-11T02:46:35;6.90;99.90
11126;DHT22;5617;54.046;10.676;2023-02-11T02:48:45;6.90;99.90
11126;DHT22;5617;54.046;10.676;2023-02-11T02:51:20;6.90;99.90
11126;DHT22;5617;54.046;10.676;2023-02-11T02:53:43;6.90;99.90
11126;DHT22;5617;54.046;10.676;2023-02-11T02:56:01;6.90;99.90
11126;DHT22;5617;54.046;10.676;2023-02-11T02:58:34;6.90;99.90
11126;DHT22;5617;54.046;10.676;2023-02-11T03:00:50;6.90;99.90
11126;DHT22;5617;54.046;10.676;2023-02-11T03:03:11;6.90;99.90
11126;DHT22;5617;54.046;10.676;2023-02-11T03:05:30;6.90;99.90
11126;DHT22;5617;54.046;10.676;2023-02-11T03:07:47;6.90;99.90
11126;DHT22;5617;54.046;10.676;2023-02-11T03:09:59;6.90;99.90
11126;DHT22;5617;54.046;10.676;2023-02-11T03:12:09;6.90;99.90
11126;DHT22;5617;54.046;10.676;2023-02-11T03:14:19;6.90;99.90
11126;DHT22;5617;54.046;10.676;2023-02-11T03:16:29;6.90;99.90
11126;DHT22;5617;54.046;10.676;2023-02-11T03:18:45;6.90;99.90
11126;DHT22;5617;54.046;10.676;2023-02-11T03:20:56;6.90;99.90
11126;DHT22;5617;54.046;10.676;2023-02-11T03:23:09;7.00;99.90
11126;DHT22;5617;54.046;10.676;2023-02-11T03:25:18;7.00;99.90
11126;DHT22;5617;54.046;10.676;2023-02-11T03:27:29;7.00;99.90
11126;DHT22;5617;54.046;10.676;2023-02-11T03:29:43;7.00;99.90
11126;DHT22;5617;54.046;10.676;2023-02-11T03:32:00;7.00;99.90
11126;DHT22;5617;54.046;10.676;2023-02-11T03:34:14;7.10;99.90
11126;DHT22;5617;54.046;10.676;2023-02-11T03:36:31;7.10;99.90
11126;DHT22;5617;54.046;10.676;2023-02-11T03:38:45;7.10;99.90
11126;DHT22;5617;54.046;10.676;2023-02-11T03:40:55;7.10;99.90
11126;DHT22;5617;54.046;10.676;2023-02-11T03:43:07;7.10;99.90
11126;DHT22;5617;54.046;10.676;2023-02-11T03:45:19;7.10;99.90
11126;DHT22;5617;54.046;10.676;2023-02-11T03:47:29;7.10;99.90
11126;DHT22;5617;54.046;10.676;2023-02-11T03:49:39;7.10;99.90
11126;DHT22;5617;54.046;10.676;2023-02-11T03:51:50;7.10;99.90
11126;DHT22;5617;54.046;10.676;2023-02-11T03:54:01;7.10;99.90
11126;DHT22;5617;54.046;10.676;2023-02-11T03:56:12;7.10;99.90
11126;DHT22;5617;54.046;10.676;2023-02-11T03:58:21;7.10;99.90
11126;DHT22;5617;54.046;10.676;2023-02-11T04:00:30;7.20;99.90
11126;DHT22;5617;54.046;10.676;2023-02-11T04:02:38;7.20;99.90
11126;DHT22;5617;54.046;10.676;2023-02-11T04:04:46;7.20;99.90
11126;DHT22;5617;54.046;10.676;2023-02-11T04:06:55;7.30;99.90
11126;DHT22;5617;54.046;10.676;2023-02-11T04:09:03;7.20;99.90
11126;DHT22;5617;54.046;10.676;2023-02-11T04:11:11;7.20;99.90
11126;DHT22;5617;54.046;10.676;2023-02-11T04:13:18;7.20;99.90
11126;DHT22;5617;54.046;10.676;2023-02-11T04:15:26;7.20;99.90
11126;DHT22;5617;54.046;10.676;2023-02-11T04:17:35;7.20;99.90
11126;DHT22;5617;54.046;10.676;2023-02-11T04:19:42;7.20;99.90
11126;DHT22;5617;54.046;10.676;2023-02-11T04:21:50;7.20;99.90
11126;DHT22;5617;54.046;10.676;2023-02-11T04:23:59;7.30;99.90
11126;DHT22;5617;54.046;10.676;2023-02-11T04:26:06;7.30;99.90
11126;DHT22;5617;54.046;10.676;2023-02-11T04:28:14;7.30;99.90
11126;DHT22;5617;54.046;10.676;2023-02-11T04:30:22;7.30;99.90
11126;DHT22;5617;54.046;10.676;2023-02-11T04:32:29;7.30;99.90
11126;DHT22;5617;54.046;10.676;2023-02-11T04:34:37;7.30;99.90
11126;DHT22;5617;54.046;10.676;2023-02-11T04:36:45;7.30;99.90
11126;DHT22;5617;54.046;10.676;2023-02-11T04:38:52;7.30;99.90
11126;DHT22;5617;54.046;10.676;2023-02-11T04:41:01;7.30;99.90
11126;DHT22;5617;54.046;10.676;2023-02-11T04:43:09;7.40;99.90
11126;DHT22;5617;54.046;10.676;2023-02-11T04:45:16;7.40;99.90
11126;DHT22;5617;54.046;10.676;2023-02-11T04:47:24;7.40;99.90
11126;DHT22;5617;54.046;10.676;2023-02-11T04:49:32;7.40;99.90
11126;DHT22;5617;54.046;10.676;2023-02-11T04:51:39;7.40;99.90
11126;DHT22;5617;54.046;10.676;2023-02-11T04:53:47;7.40;99.90
11126;DHT22;5617;54.046;10.676;2023-02-11T04:55:55;7.50;99.90
11126;DHT22;5617;54.046;10.676;2023-02-11T04:58:03;7.50;99.90
11126;DHT22;5617;54.046;10.676;2023-02-11T05:00:12;7.50;99.90
11126;DHT22;5617;54.046;10.676;2023-02-11T05:02:20;7.50;99.90
11126;DHT22;5617;54.046;10.676;2023-02-11T05:04:28;7.60;99.90
11126;DHT22;5617;54.046;10.676;2023-02-11T05:06:37;7.60;99.90
11126;DHT22;5617;54.046;10.676;2023-02-11T05:08:44;7.60;99.90
11126;DHT22;5617;54.046;10.676;2023-02-11T05:10:52;7.60;99.90
11126;DHT22;5617;54.046;10.676;2023-02-11T05:13:00;7.60;99.90
11126;DHT22;5617;54.046;10.676;2023-02-11T05:15:09;7.60;99.90
11126;DHT22;5617;54.046;10.676;2023-02-11T05:17:16;7.70;99.90
11126;DHT22;5617;54.046;10.676;2023-02-11T05:19:24;7.70;99.90
11126;DHT22;5617;54.046;10.676;2023-02-11T05:21:32;7.70;99.90
11126;DHT22;5617;54.046;10.676;2023-02-11T05:23:40;7.70;99.90
11126;DHT22;5617;54.046;10.676;2023-02-11T05:25:47;7.70;99.90
11126;DHT22;5617;54.046;10.676;2023-02-11T05:27:55;7.80;99.90
11126;DHT22;5617;54.046;10.676;2023-02-11T05:30:04;7.70;99.90
11126;DHT22;5617;54.046;10.676;2023-02-11T05:32:13;7.80;99.90
11126;DHT22;5617;54.046;10.676;2023-02-11T05:34:21;7.80;99.90
11126;DHT22;5617;54.046;10.676;2023-02-11T05:36:29;7.80;99.90
11126;DHT22;5617;54.046;10.676;2023-02-11T05:38:37;7.80;99.90
11126;DHT22;5617;54.046;10.676;2023-02-11T05:40:45;7.80;99.90
11126;DHT22;5617;54.046;10.676;2023-02-11T05:42:52;7.80;99.90
11126;DHT22;5617;54.046;10.676;2023-02-11T05:45:00;7.80;99.90
11126;DHT22;5617;54.046;10.676;2023-02-11T05:47:08;7.80;99.90
11126;DHT22;5617;54.046;10.676;2023-02-11T05:49:17;7.90;99.90
11126;DHT22;5617;54.046;10.676;2023-02-11T05:51:24;7.90;99.90
11126;DHT22;5617;54.046;10.676;2023-02-11T05:53:32;7.90;99.90
11126;DHT22;5617;54.046;10.676;2023-02-11T05:55:40;7.90;99.90
11126;DHT22;5617;54.046;10.676;2023-02-11T05:57:47;7.90;99.90
11126;DHT22;5617;54.046;10.676;2023-02-11T05:59:55;7.90;99.90
11126;DHT22;5617;54.046;10.676;2023-02-11T06:02:02;7.90;99.90
11126;DHT22;5617;54.046;10.676;2023-02-11T06:04:10;7.90;99.90
11126;DHT22;5617;54.046;10.676;2023-02-11T06:06:19;7.90;99.90
11126;DHT22;5617;54.046;10.676;2023-02-11T06:08:26;7.90;99.90
11126;DHT22;5617;54.046;10.676;2023-02-11T06:10:34;7.90;99.90
11126;DHT22;5617;54.046;10.676;2023-02-11T06:12:42;7.90;99.90
11126;DHT22;5617;54.046;10.676;2023-02-11T06:14:50;7.90;99.90
11126;DHT22;5617;54.046;10.676;2023-02-11T06:16:57;7.90;99.90
11126;DHT22;5617;54.046;10.676;2023-02-11T06:19:05;7.90;99.90
11126;DHT22;5617;54.046;10.676;2023-02-11T06:21:13;7.90;99.90
11126;DHT22;5617;54.046;10.676;2023-02-11T06:23:22;7.80;99.90
11126;DHT22;5617;54.046;10.676;2023-02-11T06:25:29;7.80;99.90
11126;DHT22;5617;54.046;10.676;2023-02-11T06:27:37;7.80;99.90
11126;DHT22;5617;54.046;10.676;2023-02-11T06:29:45;7.80;99.90
11126;DHT22;5617;54.046;10.676;2023-02-11T06:31:53;7.80;99.90
11126;DHT22;5617;54.046;10.676;2023-02-11T06:34:00;7.80;99.90
11126;DHT22;5617;54.046;10.676;2023-02-11T06:36:13;7.80;99.90
11126;DHT22;5617;54.046;10.676;2023-02-11T06:38:22;7.80;99.90
11126;DHT22;5617;54.046;10.676;2023-02-11T06:40:30;7.80;99.90
11126;DHT22;5617;54.046;10.676;2023-02-11T06:42:38;7.80;99.90
11126;DHT22;5617;54.046;10.676;2023-02-11T06:44:45;7.80;99.90
11126;DHT22;5617;54.046;10.676;2023-02-11T06:46:53;7.70;99.90
11126;DHT22;5617;54.046;10.676;2023-02-11T06:49:00;7.80;99.90
11126;DHT22;5617;54.046;10.676;2023-02-11T06:51:10;7.80;99.90
11126;DHT22;5617;54.046;10.676;2023-02-11T06:53:18;7.80;99.90
11126;DHT22;5617;54.046;10.676;2023-02-11T06:55:27;7.70;99.90
11126;DHT22;5617;54.046;10.676;2023-02-11T06:57:35;7.80;99.90
11126;DHT22;5617;54.046;10.676;2023-02-11T06:59:42;7.80;99.90
11126;DHT22;5617;54.046;10.676;2023-02-11T07:01:50;7.80;99.90
11126;DHT22;5617;54.046;10.676;2023-02-11T07:03:58;7.80;99.90
11126;DHT22;5617;54.046;10.676;2023-02-11T07:06:06;7.80;99.90
11126;DHT22;5617;54.046;10.676;2023-02-11T07:08:15;7.80;99.90
11126;DHT22;5617;54.046;10.676;2023-02-11T07:10:22;7.80;99.90
11126;DHT22;5617;54.046;10.676;2023-02-11T07:12:31;7.80;99.90
11126;DHT22;5617;54.046;10.676;2023-02-11T07:14:39;7.80;99.90
11126;DHT22;5617;54.046;10.676;2023-02-11T07:16:47;7.80;99.90
11126;DHT22;5617;54.046;10.676;2023-02-11T07:18:55;7.80;99.90
11126;DHT22;5617;54.046;10.676;2023-02-11T07:21:04;7.80;99.90
11126;DHT22;5617;54.046;10.676;2023-02-11T07:23:12;7.90;99.90
11126;DHT22;5617;54.046;10.676;2023-02-11T07:25:19;7.90;99.90
11126;DHT22;5617;54.046;10.676;2023-02-11T07:27:27;7.90;99.90
11126;DHT22;5617;54.046;10.676;2023-02-11T07:29:36;7.90;99.90
11126;DHT22;5617;54.046;10.676;2023-02-11T07:31:44;7.90;99.90
11126;DHT22;5617;54.046;10.676;2023-02-11T07:33:52;7.90;99.90
11126;DHT22;5617;54.046;10.676;2023-02-11T07:36:00;7.90;99.90
11126;DHT22;5617;54.046;10.676;2023-02-11T07:38:07;7.90;99.90
11126;DHT22;5617;54.046;10.676;2023-02-11T07:40:16;7.90;99.90
11126;DHT22;5617;54.046;10.676;2023-02-11T07:42:23;8.00;99.90
11126;DHT22;5617;54.046;10.676;2023-02-11T07:44:31;8.00;99.90
11126;DHT22;5617;54.046;10.676;2023-02-11T07:46:41;8.00;99.90
11126;DHT22;5617;54.046;10.676;2023-02-11T07:48:50;8.00;99.90
11126;DHT22;5617;54.046;10.676;2023-02-11T07:51:05;8.00;99.90
11126;DHT22;5617;54.046;10.676;2023-02-11T07:53:13;8.00;99.90
11126;DHT22;5617;54.046;10.676;2023-02-11T07:55:20;8.00;99.90
11126;DHT22;5617;54.046;10.676;2023-02-11T07:57:28;8.00;99.90
11126;DHT22;5617;54.046;10.676;2023-02-11T07:59:35;8.00;99.90
11126;DHT22;5617;54.046;10.676;2023-02-11T08:01:44;8.00;99.90
11126;DHT22;5617;54.046;10.676;2023-02-11T08:03:53;8.00;99.90
11126;DHT22;5617;54.046;10.676;2023-02-11T08:06:02;8.00;99.90
11126;DHT22;5617;54.046;10.676;2023-02-11T08:08:10;8.00;99.90
11126;DHT22;5617;54.046;10.676;2023-02-11T08:10:18;8.00;99.90
11126;DHT22;5617;54.046;10.676;2023-02-11T08:12:26;8.00;99.90
11126;DHT22;5617;54.046;10.676;2023-02-11T08:14:33;8.00;99.90
11126;DHT22;5617;54.046;10.676;2023-02-11T08:16:41;8.00;99.90
11126;DHT22;5617;54.046;10.676;2023-02-11T08:18:51;8.10;99.90
11126;DHT22;5617;54.046;10.676;2023-02-11T08:21:03;8.00;99.90
11126;DHT22;5617;54.046;10.676;2023-02-11T08:23:11;8.10;99.90
11126;DHT22;5617;54.046;10.676;2023-02-11T08:25:18;8.00;99.90
11126;DHT22;5617;54.046;10.676;2023-02-11T08:27:26;8.10;99.90
11126;DHT22;5617;54.046;10.676;2023-02-11T08:29:34;8.10;99.90
11126;DHT22;5617;54.046;10.676;2023-02-11T08:31:44;8.10;99.90
11126;DHT22;5617;54.046;10.676;2023-02-11T08:33:53;8.10;99.90
11126;DHT22;5617;54.046;10.676;2023-02-11T08:36:07;8.10;99.90
11126;DHT22;5617;54.046;10.676;2023-02-11T08:38:15;8.10;99.90
11126;DHT22;5617;54.046;10.676;2023-02-11T08:40:23;8.10;99.90
11126;DHT22;5617;54.046;10.676;2023-02-11T08:42:30;8.20;99.90
11126;DHT22;5617;54.046;10.676;2023-02-11T08:44:38;8.20;99.90
11126;DHT22;5617;54.046;10.676;2023-02-11T08:46:46;8.20;99.90
11126;DHT22;5617;54.046;10.676;2023-02-11T08:48:55;8.20;99.90
11126;DHT22;5617;54.046;10.676;2023-02-11T08:51:05;8.20;99.90
11126;DHT22;5617;54.046;10.676;2023-02-11T08:53:14;8.20;99.90
11126;DHT22;5617;54.046;10.676;2023-02-11T08:55:21;8.20;99.90
11126;DHT22;5617;54.046;10.676;2023-02-11T08:57:29;8.20;99.90
11126;DHT22;5617;54.046;10.676;2023-02-11T08:59:37;8.20;99.90
11126;DHT22;5617;54.046;10.676;2023-02-11T09:01:45;8.20;99.90
11126;DHT22;5617;54.046;10.676;2023-02-11T09:03:54;8.30;99.90
11126;DHT22;5617;54.046;10.676;2023-02-11T09:06:05;8.30;99.90
11126;DHT22;5617;54.046;10.676;2023-02-11T09:08:13;8.30;99.90
11126;DHT22;5617;54.046;10.676;2023-02-11T09:10:21;8.30;99.90
11126;DHT22;5617;54.046;10.676;2023-02-11T09:12:28;8.30;99.90
11126;DHT22;5617;54.046;10.676;2023-02-11T09:14:36;8.30;99.90
11126;DHT22;5617;54.046;10.676;2023-02-11T09:16:44;8.30;99.90
11126;DHT22;5617;54.046;10.676;2023-02-11T09:18:52;8.30;99.90
11126;DHT22;5617;54.046;10.676;2023-02-11T09:21:06;8.30;99.90
11126;DHT22;5617;54.046;10.676;2023-02-11T09:23:14;8.30;99.90
11126;DHT22;5617;54.046;10.676;2023-02-11T09:25:21;8.40;99.90
11126;DHT22;5617;54.046;10.676;2023-02-11T09:27:30;8.30;99.90
11126;DHT22;5617;54.046;10.676;2023-02-11T09:29:37;8.40;99.90
11126;DHT22;5617;54.046;10.676;2023-02-11T09:31:45;8.40;99.90
11126;DHT22;5617;54.046;10.676;2023-02-11T09:33:56;8.40;99.90
11126;DHT22;5617;54.046;10.676;2023-02-11T09:36:07;8.40;99.90
11126;DHT22;5617;54.046;10.676;2023-02-11T09:38:14;8.50;99.90
11126;DHT22;5617;54.046;10.676;2023-02-11T09:40:22;8.50;99.90
11126;DHT22;5617;54.046;10.676;2023-02-11T09:42:42;8.50;99.90
11126;DHT22;5617;54.046;10.676;2023-02-11T09:44:51;8.60;99.90
11126;DHT22;5617;54.046;10.676;2023-02-11T09:47:00;8.50;99.90
11126;DHT22;5617;54.046;10.676;2023-02-11T09:49:16;8.60;99.90
11126;DHT22;5617;54.046;10.676;2023-02-11T09:51:37;8.60;99.90
11126;DHT22;5617;54.046;10.676;2023-02-11T09:53:49;8.60;99.90
11126;DHT22;5617;54.046;10.676;2023-02-11T09:55:59;8.60;99.90
11126;DHT22;5617;54.046;10.676;2023-02-11T09:58:12;8.70;99.90
11126;DHT22;5617;54.046;10.676;2023-02-11T10:00:23;8.60;99.90
11126;DHT22;5617;54.046;10.676;2023-02-11T10:02:39;8.60;99.90
11126;DHT22;5617;54.046;10.676;2023-02-11T10:05:08;8.60;99.90
11126;DHT22;5617;54.046;10.676;2023-02-11T10:07:30;8.60;99.90
11126;DHT22;5617;54.046;10.676;2023-02-11T10:09:50;8.70;99.90
11126;DHT22;5617;54.046;10.676;2023-02-11T10:12:14;8.70;99.90
11126;DHT22;5617;54.046;10.676;2023-02-11T10:14:35;8.80;99.90
11126;DHT22;5617;54.046;10.676;2023-02-11T10:16:57;8.80;99.90
11126;DHT22;5617;54.046;10.676;2023-02-11T10:19:29;8.80;99.90
11126;DHT22;5617;54.046;10.676;2023-02-11T10:21:47;8.90;99.90
11126;DHT22;5617;54.046;10.676;2023-02-11T10:24:02;8.90;99.90
11126;DHT22;5617;54.046;10.676;2023-02-11T10:26:12;8.90;99.90
11126;DHT22;5617;54.046;10.676;2023-02-11T10:28:22;8.90;99.90
11126;DHT22;5617;54.046;10.676;2023-02-11T10:30:33;8.90;99.90
11126;DHT22;5617;54.046;10.676;2023-02-11T10:32:46;9.00;99.90
11126;DHT22;5617;54.046;10.676;2023-02-11T10:35:00;9.00;99.90
11126;DHT22;5617;54.046;10.676;2023-02-11T10:37:08;9.00;99.90
11126;DHT22;5617;54.046;10.676;2023-02-11T10:39:22;9.00;99.90
11126;DHT22;5617;54.046;10.676;2023-02-11T10:41:32;9.00;99.90
11126;DHT22;5617;54.046;10.676;2023-02-11T10:43:41;9.00;99.90
11126;DHT22;5617;54.046;10.676;2023-02-11T10:45:51;9.00;99.90
11126;DHT22;5617;54.046;10.676;2023-02-11T10:48:00;9.00;99.90
11126;DHT22;5617;54.046;10.676;2023-02-11T10:50:18;9.10;99.90
11126;DHT22;5617;54.046;10.676;2023-02-11T10:52:27;9.10;99.90
11126;DHT22;5617;54.046;10.676;2023-02-11T10:54:37;9.20;99.90
11126;DHT22;5617;54.046;10.676;2023-02-11T10:56:46;9.20;99.90
11126;DHT22;5617;54.046;10.676;2023-02-11T10:58:59;9.20;99.90
11126;DHT22;5617;54.046;10.676;2023-02-11T11:01:08;9.20;99.90
11126;DHT22;5617;54.046;10.676;2023-02-11T11:03:18;9.20;99.90
11126;DHT22;5617;54.046;10.676;2023-02-11T11:05:30;9.20;99.90
11126;DHT22;5617;54.046;10.676;2023-02-11T11:07:38;9.20;99.90
11126;DHT22;5617;54.046;10.676;2023-02-11T11:09:52;9.30;99.90
11126;DHT22;5617;54.046;10.676;2023-02-11T11:12:00;9.20;99.90
11126;DHT22;5617;54.046;10.676;2023-02-11T11:14:18;9.20;99.90
11126;DHT22;5617;54.046;10.676;2023-02-11T11:16:28;9.30;99.90
11126;DHT22;5617;54.046;10.676;2023-02-11T11:18:36;9.30;99.90
11126;DHT22;5617;54.046;10.676;2023-02-11T11:20:54;9.30;99.90
11126;DHT22;5617;54.046;10.676;2023-02-11T11:23:10;9.30;99.90
11126;DHT22;5617;54.046;10.676;2023-02-11T11:25:25;9.30;99.90
11126;DHT22;5617;54.046;10.676;2023-02-11T11:27:33;9.30;99.90
11126;DHT22;5617;54.046;10.676;2023-02-11T11:29:44;9.30;99.90
11126;DHT22;5617;54.046;10.676;2023-02-11T11:31:55;9.30;99.90
11126;DHT22;5617;54.046;10.676;2023-02-11T11:34:26;9.30;99.90
11126;DHT22;5617;54.046;10.676;2023-02-11T11:36:36;9.30;99.90
11126;DHT22;5617;54.046;10.676;2023-02-11T11:38:48;9.30;99.90
11126;DHT22;5617;54.046;10.676;2023-02-11T11:41:19;9.30;99.90
11126;DHT22;5617;54.046;10.676;2023-02-11T11:43:26;9.30;99.90
11126;DHT22;5617;54.046;10.676;2023-02-11T11:45:34;9.30;99.90
11126;DHT22;5617;54.046;10.676;2023-02-11T11:47:43;9.40;99.90
11126;DHT22;5617;54.046;10.676;2023-02-11T11:50:15;9.30;99.90
11126;DHT22;5617;54.046;10.676;2023-02-11T11:52:38;9.30;99.90
11126;DHT22;5617;54.046;10.676;2023-02-11T11:54:50;9.40;99.90
11126;DHT22;5617;54.046;10.676;2023-02-11T11:57:05;9.30;99.90
11126;DHT22;5617;54.046;10.676;2023-02-11T11:59:17;9.40;99.90
11126;DHT22;5617;54.046;10.676;2023-02-11T12:01:33;9.40;99.90
11126;DHT22;5617;54.046;10.676;2023-02-11T12:06:42;9.30;99.90
11126;DHT22;5617;54.046;10.676;2023-02-11T12:08:59;9.30;99.90
11126;DHT22;5617;54.046;10.676;2023-02-11T12:11:15;9.30;99.90
11126;DHT22;5617;54.046;10.676;2023-02-11T12:13:38;9.30;99.90
11126;DHT22;5617;54.046;10.676;2023-02-11T12:15:54;9.40;99.90
11126;DHT22;5617;54.046;10.676;2023-02-11T12:20:50;9.40;99.90
11126;DHT22;5617;54.046;10.676;2023-02-11T12:23:20;9.40;99.90
11126;DHT22;5617;54.046;10.676;2023-02-11T12:25:33;9.50;99.90
11126;DHT22;5617;54.046;10.676;2023-02-11T12:27:48;9.50;99.90
11126;DHT22;5617;54.046;10.676;2023-02-11T12:30:06;9.50;99.90
11126;DHT22;5617;54.046;10.676;2023-02-11T12:32:24;9.50;99.90
11126;DHT22;5617;54.046;10.676;2023-02-11T12:34:46;9.60;99.90
11126;DHT22;5617;54.046;10.676;2023-02-11T12:37:03;9.60;99.90
11126;DHT22;5617;54.046;10.676;2023-02-11T12:39:25;9.60;99.90
11126;DHT22;5617;54.046;10.676;2023-02-11T12:41:50;9.70;99.90
11126;DHT22;5617;54.046;10.676;2023-02-11T12:44:24;9.70;99.90
11126;DHT22;5617;54.046;10.676;2023-02-11T12:46:42;9.70;99.90
11126;DHT22;5617;54.046;10.676;2023-02-11T12:49:22;9.70;99.90
11126;DHT22;5617;54.046;10.676;2023-02-11T12:51:43;9.80;99.90
11126;DHT22;5617;54.046;10.676;2023-02-11T12:54:13;9.80;99.90
11126;DHT22;5617;54.046;10.676;2023-02-11T12:56:25;9.80;99.90
11126;DHT22;5617;54.046;10.676;2023-02-11T12:58:35;9.80;99.90
11126;DHT22;5617;54.046;10.676;2023-02-11T13:00:47;9.80;99.90
11126;DHT22;5617;54.046;10.676;2023-02-11T13:03:00;9.80;99.90
11126;DHT22;5617;54.046;10.676;2023-02-11T13:05:21;9.80;99.90
11126;DHT22;5617;54.046;10.676;2023-02-11T13:07:33;9.90;99.90
11126;DHT22;5617;54.046;10.676;2023-02-11T13:09:44;9.90;99.90
11126;DHT22;5617;54.046;10.676;2023-02-11T13:11:57;9.90;99.90
11126;DHT22;5617;54.046;10.676;2023-02-11T13:14:29;9.90;99.90
11126;DHT22;5617;54.046;10.676;2023-02-11T13:16:42;9.90;99.90
11126;DHT22;5617;54.046;10.676;2023-02-11T13:18:55;9.90;99.90
11126;DHT22;5617;54.046;10.676;2023-02-11T13:21:22;9.90;99.90
11126;DHT22;5617;54.046;10.676;2023-02-11T13:23:38;9.90;99.90
11126;DHT22;5617;54.046;10.676;2023-02-11T13:25:50;9.80;99.90
11126;DHT22;5617;54.046;10.676;2023-02-11T13:28:04;9.80;99.90
11126;DHT22;5617;54.046;10.676;2023-02-11T13:30:23;9.80;99.90
11126;DHT22;5617;54.046;10.676;2023-02-11T13:35:28;9.90;99.90
11126;DHT22;5617;54.046;10.676;2023-02-11T13:37:37;9.90;99.90
11126;DHT22;5617;54.046;10.676;2023-02-11T13:39:55;9.90;99.90
11126;DHT22;5617;54.046;10.676;2023-02-11T13:42:03;9.90;99.90
11126;DHT22;5617;54.046;10.676;2023-02-11T13:44:28;9.90;99.90
11126;DHT22;5617;54.046;10.676;2023-02-11T13:46:57;9.90;99.90
11126;DHT22;5617;54.046;10.676;2023-02-11T13:49:17;9.90;99.90
11126;DHT22;5617;54.046;10.676;2023-02-11T13:51:35;9.90;99.90
11126;DHT22;5617;54.046;10.676;2023-02-11T13:53:46;9.90;99.90
11126;DHT22;5617;54.046;10.676;2023-02-11T13:56:05;9.90;99.90
11126;DHT22;5617;54.046;10.676;2023-02-11T13:58:25;9.90;99.90
11126;DHT22;5617;54.046;10.676;2023-02-11T14:00:45;9.90;99.90
11126;DHT22;5617;54.046;10.676;2023-02-11T14:03:20;9.90;99.90
11126;DHT22;5617;54.046;10.676;2023-02-11T14:09:08;9.80;99.90
11126;DHT22;5617;54.046;10.676;2023-02-11T14:11:44;9.80;99.90
11126;DHT22;5617;54.046;10.676;2023-02-11T14:14:02;9.80;99.90
11126;DHT22;5617;54.046;10.676;2023-02-11T14:16:20;9.80;99.90
11126;DHT22;5617;54.046;10.676;2023-02-11T14:18:59;9.70;99.90
11126;DHT22;5617;54.046;10.676;2023-02-11T14:21:11;9.70;99.90